createdAt,value
2018-05-26T00:00:23.019Z,19.19
2018-05-26T00:02:49.300Z,19.21
2018-05-26T00:05:15.570Z,19.04
2018-05-26T00:07:41.819Z,19.09
2018-05-26T00:10:14.954Z,19.08
2018-05-26T00:12:41.206Z,19.01
2018-05-26T00:15:07.550Z,18.98
2018-05-26T00:17:33.811Z,18.94
2018-05-26T00:20:00.064Z,18.95
2018-05-26T00:22:26.319Z,18.91
2018-05-26T00:24:52.579Z,18.88
2018-05-26T00:27:18.855Z,18.83
2018-05-26T00:29:45.115Z,18.85
2018-05-26T00:32:11.383Z,18.87
2018-05-26T00:34:37.638Z,18.86
2018-05-26T00:37:03.895Z,18.80
2018-05-26T00:39:30.119Z,18.76
2018-05-26T00:41:56.399Z,18.73
2018-05-26T00:44:22.627Z,18.71
2018-05-26T00:46:48.885Z,18.73
2018-05-26T00:49:15.130Z,18.65
2018-05-26T00:51:41.371Z,18.61
2018-05-26T00:54:07.626Z,18.58
2018-05-26T00:56:33.887Z,18.58
2018-05-26T00:59:00.158Z,18.54
2018-05-26T01:01:26.421Z,18.48
2018-05-26T01:03:52.666Z,18.45
2018-05-26T01:06:18.910Z,18.40
2018-05-26T01:08:45.191Z,18.38
2018-05-26T01:11:11.484Z,18.36
2018-05-26T01:13:37.736Z,18.33
2018-05-26T01:16:03.999Z,18.29
2018-05-26T01:18:30.222Z,18.26
2018-05-26T01:20:56.490Z,18.23
2018-05-26T01:23:22.873Z,18.22
2018-05-26T01:25:49.129Z,18.18
2018-05-26T01:28:15.378Z,18.04
2018-05-26T01:30:41.643Z,18.03
2018-05-26T01:33:07.871Z,18.04
2018-05-26T01:35:34.095Z,18.04
2018-05-26T01:38:00.350Z,18.03
2018-05-26T01:40:26.570Z,18.02
2018-05-26T01:42:52.827Z,18.00
2018-05-26T01:45:19.086Z,17.97
2018-05-26T01:47:45.371Z,17.95
2018-05-26T01:50:11.602Z,17.95
2018-05-26T01:52:37.938Z,17.93
2018-05-26T01:55:04.187Z,17.91
2018-05-26T01:57:30.438Z,17.91
2018-05-26T01:59:56.708Z,17.93
2018-05-26T02:02:22.967Z,17.93
2018-05-26T02:04:49.207Z,17.86
2018-05-26T02:07:15.431Z,17.82
2018-05-26T02:09:41.686Z,17.84
2018-05-26T02:12:07.898Z,17.82
2018-05-26T02:14:34.185Z,17.81
2018-05-26T02:17:00.490Z,17.79
2018-05-26T02:19:26.738Z,17.79
2018-05-26T02:21:53.059Z,17.75
2018-05-26T02:24:19.334Z,17.77
2018-05-26T02:26:45.615Z,17.77
2018-05-26T02:29:11.850Z,17.80
2018-05-26T02:31:38.091Z,17.79
2018-05-26T02:34:04.348Z,17.79
2018-05-26T02:36:30.636Z,17.74
2018-05-26T02:38:56.890Z,17.72
2018-05-26T02:41:23.119Z,17.70
2018-05-26T02:43:49.414Z,17.68
2018-05-26T02:46:15.663Z,17.66
2018-05-26T02:48:41.991Z,17.63
2018-05-26T02:51:08.275Z,17.67
2018-05-26T02:53:34.555Z,17.66
2018-05-26T02:56:00.873Z,17.64
2018-05-26T02:58:27.198Z,17.60
2018-05-26T03:00:53.435Z,17.59
2018-05-26T03:03:19.743Z,17.56
2018-05-26T03:05:52.047Z,17.58
2018-05-26T03:08:24.292Z,17.55
2018-05-26T03:10:56.671Z,17.56
2018-05-26T03:13:28.988Z,17.53
2018-05-26T03:16:01.292Z,17.53
2018-05-26T03:18:27.523Z,17.54
2018-05-26T03:20:53.751Z,17.53
2018-05-26T03:23:20.079Z,17.51
2018-05-26T03:25:46.314Z,17.55
2018-05-26T03:28:12.626Z,17.55
2018-05-26T03:30:38.940Z,17.55
2018-05-26T03:33:05.167Z,17.56
2018-05-26T03:35:31.430Z,17.54
2018-05-26T03:37:57.778Z,17.51
2018-05-26T03:40:24.083Z,17.45
2018-05-26T03:42:50.375Z,17.42
2018-05-26T03:45:16.680Z,17.42
2018-05-26T03:47:42.897Z,17.41
2018-05-26T03:50:09.140Z,17.43
2018-05-26T03:52:35.395Z,17.48
2018-05-26T04:08:36.759Z,17.55
2018-05-26T04:11:03.043Z,17.58
2018-05-26T04:13:29.295Z,17.61
2018-05-26T04:15:55.527Z,17.62
2018-05-26T04:18:21.839Z,17.65
2018-05-26T04:20:48.086Z,17.66
2018-05-26T04:23:14.338Z,17.72
2018-05-26T04:25:40.558Z,17.75
2018-05-26T04:28:06.865Z,17.79
2018-05-26T04:30:33.097Z,17.84
2018-05-26T04:32:59.358Z,17.86
2018-05-26T04:35:25.674Z,17.91
2018-05-26T04:37:51.903Z,17.99
2018-05-26T04:40:18.264Z,18.04
2018-05-26T04:42:44.498Z,18.11
2018-05-26T04:45:10.747Z,18.18
2018-05-26T04:47:36.982Z,18.25
2018-05-26T04:50:03.252Z,18.36
2018-05-26T04:52:29.486Z,18.47
2018-05-26T04:54:55.710Z,18.56
2018-05-26T04:57:22.014Z,18.63
2018-05-26T04:59:48.227Z,18.74
2018-05-26T05:02:14.461Z,18.85
2018-05-26T05:04:40.715Z,18.92
2018-05-26T05:07:06.968Z,19.05
2018-05-26T05:09:33.195Z,19.17
2018-05-26T05:11:59.443Z,19.31
2018-05-26T05:14:25.698Z,19.41
2018-05-26T05:16:51.975Z,19.48
2018-05-26T05:19:18.259Z,19.56
2018-05-26T05:21:44.490Z,19.48
2018-05-26T05:24:10.745Z,19.54
2018-05-26T05:26:37.900Z,19.64
2018-05-26T05:29:04.154Z,19.80
2018-05-26T05:31:30.455Z,19.81
2018-05-26T05:33:56.742Z,19.80
2018-05-26T05:36:23.024Z,19.88
2018-05-26T05:38:49.310Z,19.97
2018-05-26T05:41:15.563Z,20.17
2018-05-26T05:43:41.794Z,20.29
2018-05-26T05:46:08.045Z,20.41
2018-05-26T05:48:34.305Z,20.51
2018-05-26T05:51:00.567Z,20.64
2018-05-26T05:53:26.843Z,20.64
2018-05-26T05:55:53.107Z,20.72
2018-05-26T05:58:19.370Z,20.89
2018-05-26T06:00:45.599Z,20.97
2018-05-26T06:03:11.890Z,21.16
2018-05-26T06:05:38.221Z,21.31
2018-05-26T06:08:04.470Z,21.43
2018-05-26T06:10:30.719Z,21.57
2018-05-26T06:12:56.982Z,21.64
2018-05-26T06:15:23.318Z,21.79
2018-05-26T06:17:49.663Z,21.98
2018-05-26T06:20:16.022Z,22.11
2018-05-26T06:22:42.258Z,22.12
2018-05-26T06:25:08.506Z,22.17
2018-05-26T06:27:34.747Z,22.46
2018-05-26T06:30:01.078Z,22.64
2018-05-26T06:32:27.360Z,22.76
2018-05-26T06:34:53.776Z,22.83
2018-05-26T06:37:20.051Z,23.05
2018-05-26T06:39:46.786Z,23.31
2018-05-26T06:42:13.067Z,23.47
2018-05-26T06:44:39.298Z,23.52
2018-05-26T06:47:05.595Z,23.59
2018-05-26T06:49:31.890Z,23.78
2018-05-26T06:51:58.184Z,23.97
2018-05-26T06:54:24.418Z,24.08
2018-05-26T06:56:50.654Z,24.28
2018-05-26T06:59:16.886Z,24.38
2018-05-26T07:01:43.160Z,24.62
2018-05-26T07:04:09.386Z,24.82
2018-05-26T07:06:35.696Z,25.02
2018-05-26T07:09:01.974Z,25.13
2018-05-26T07:11:28.211Z,25.36
2018-05-26T07:13:54.459Z,25.50
2018-05-26T07:16:20.702Z,25.56
2018-05-26T07:18:46.979Z,25.79
2018-05-26T07:21:13.215Z,25.96
2018-05-26T07:23:39.465Z,26.08
2018-05-26T07:26:05.767Z,26.22
2018-05-26T07:28:31.999Z,26.38
2018-05-26T07:30:58.274Z,26.60
2018-05-26T07:33:24.506Z,26.70
2018-05-26T07:35:50.759Z,26.85
2018-05-26T07:38:17.023Z,26.98
2018-05-26T07:40:43.274Z,27.19
2018-05-26T07:43:09.527Z,27.30
2018-05-26T07:45:35.798Z,27.44
2018-05-26T07:48:02.070Z,27.55
2018-05-26T07:50:28.321Z,27.74
2018-05-26T07:52:54.591Z,27.85
2018-05-26T07:55:20.859Z,27.97
2018-05-26T07:57:47.174Z,28.08
2018-05-26T08:00:13.372Z,28.24
2018-05-26T08:02:39.673Z,28.45
2018-05-26T08:05:05.927Z,28.64
2018-05-26T08:07:32.206Z,28.85
2018-05-26T08:09:58.492Z,29.07
2018-05-26T08:12:24.715Z,29.35
2018-05-26T08:14:50.966Z,29.47
2018-05-26T08:17:17.254Z,29.65
2018-05-26T08:19:43.487Z,29.94
2018-05-26T08:22:09.751Z,30.15
2018-05-26T08:24:36.048Z,30.30
2018-05-26T08:27:02.371Z,30.41
2018-05-26T08:29:28.667Z,30.65
2018-05-26T08:31:54.975Z,30.98
2018-05-26T08:34:21.248Z,31.32
2018-05-26T08:36:47.581Z,31.46
2018-05-26T08:39:13.890Z,31.63
2018-05-26T08:41:40.238Z,31.98
2018-05-26T08:44:06.546Z,32.31
2018-05-26T08:46:39.774Z,32.61
2018-05-26T08:49:05.999Z,32.91
2018-05-26T08:51:32.210Z,33.30
2018-05-26T08:53:58.542Z,33.42
2018-05-26T08:56:24.833Z,33.59
2018-05-26T08:58:51.111Z,33.92
2018-05-26T09:01:17.335Z,34.15
2018-05-26T09:03:43.615Z,34.10
2018-05-26T09:06:09.879Z,34.13
2018-05-26T09:08:36.127Z,34.29
2018-05-26T09:11:02.437Z,34.40
2018-05-26T09:13:28.689Z,34.43
2018-05-26T09:15:55.190Z,34.40
2018-05-26T09:18:21.410Z,34.57
2018-05-26T09:20:47.671Z,34.72
2018-05-26T09:23:13.991Z,34.93
2018-05-26T09:25:40.319Z,35.06
2018-05-26T09:28:06.653Z,35.23
2018-05-26T09:30:32.931Z,35.25
2018-05-26T09:32:59.158Z,35.41
2018-05-26T09:35:25.415Z,35.66
2018-05-26T09:37:51.662Z,35.81
2018-05-26T09:40:17.914Z,35.86
2018-05-26T09:42:44.218Z,36.13
2018-05-26T09:45:10.450Z,35.89
2018-05-26T09:47:36.778Z,36.02
2018-05-26T09:50:03.067Z,36.24
2018-05-26T09:52:29.375Z,36.22
2018-05-26T09:54:55.651Z,36.29
2018-05-26T09:57:21.928Z,36.42
2018-05-26T09:59:48.239Z,36.51
2018-05-26T10:02:14.546Z,35.84
2018-05-26T10:04:40.795Z,34.47
2018-05-26T10:07:07.098Z,33.48
2018-05-26T10:09:33.366Z,33.05
2018-05-26T10:11:59.660Z,32.41
2018-05-26T10:14:25.906Z,32.64
2018-05-26T10:16:52.158Z,33.75
2018-05-26T10:19:18.384Z,34.42
2018-05-26T10:21:44.704Z,35.23
2018-05-26T10:24:10.990Z,35.82
2018-05-26T10:26:37.275Z,36.06
2018-05-26T10:29:03.605Z,36.31
2018-05-26T10:31:29.888Z,36.59
2018-05-26T10:33:56.118Z,36.83
2018-05-26T10:36:22.411Z,37.30
2018-05-26T10:38:48.675Z,37.49
2018-05-26T10:41:14.917Z,37.68
2018-05-26T10:43:41.162Z,37.94
2018-05-26T10:46:19.399Z,38.09
2018-05-26T10:48:45.702Z,38.24
2018-05-26T10:51:12.019Z,38.43
2018-05-26T10:53:38.302Z,38.36
2018-05-26T10:56:04.548Z,38.38
2018-05-26T10:58:30.827Z,38.57
2018-05-26T11:00:57.062Z,38.61
2018-05-26T11:03:23.344Z,39.14
2018-05-26T11:05:49.622Z,38.90
2018-05-26T11:08:15.906Z,39.37
2018-05-26T11:10:42.283Z,39.52
2018-05-26T11:13:08.516Z,39.62
2018-05-26T11:15:34.802Z,39.70
2018-05-26T11:18:01.385Z,39.47
2018-05-26T11:20:27.462Z,39.63
2018-05-26T11:22:53.700Z,40.01
2018-05-26T11:25:19.982Z,40.38
2018-05-26T11:27:46.266Z,40.61
2018-05-26T11:30:12.503Z,40.70
2018-05-26T11:32:39.295Z,40.85
2018-05-26T11:35:05.532Z,40.35
2018-05-26T11:37:31.804Z,40.92
2018-05-26T11:39:58.046Z,41.05
2018-05-26T12:59:21.686Z,34.85
2018-05-26T13:01:47.926Z,35.94
2018-05-26T13:04:14.198Z,37.33
2018-05-26T13:06:40.426Z,38.63
2018-05-26T13:09:06.724Z,39.77
2018-05-26T13:11:32.965Z,37.81
2018-05-26T13:13:59.212Z,36.56
2018-05-26T13:16:25.486Z,35.88
2018-05-26T13:18:51.738Z,34.89
2018-05-26T13:21:18.002Z,34.26
2018-05-26T13:23:44.275Z,35.39
2018-05-26T13:26:10.499Z,35.13
2018-05-26T13:28:36.760Z,36.62
2018-05-26T13:31:03.070Z,38.64
2018-05-26T13:33:29.406Z,39.64
2018-05-26T13:35:55.657Z,40.29
2018-05-26T13:38:21.890Z,39.31
2018-05-26T13:40:48.148Z,38.61
2018-05-26T13:43:14.363Z,39.63
2018-05-26T13:45:40.582Z,40.83
2018-05-26T13:48:06.847Z,41.35
2018-05-26T13:50:33.181Z,41.69
2018-05-26T13:52:59.441Z,41.89
2018-05-26T13:55:25.859Z,42.00
2018-05-26T13:57:52.098Z,42.00
2018-05-26T14:00:18.390Z,42.31
2018-05-26T14:02:44.731Z,42.47
2018-05-26T14:05:10.991Z,42.23
2018-05-26T14:07:37.361Z,39.53
2018-05-26T14:10:03.628Z,38.11
2018-05-26T14:12:30.083Z,39.31
2018-05-26T14:14:56.333Z,38.07
2018-05-26T14:17:22.672Z,37.69
2018-05-26T14:19:48.953Z,36.33
2018-05-26T14:22:15.194Z,35.66
2018-05-26T14:24:41.719Z,34.60
2018-05-26T14:27:07.993Z,33.91
2018-05-26T14:29:34.278Z,33.78
2018-05-26T14:32:00.538Z,34.07
2018-05-26T14:34:27.550Z,35.90
2018-05-26T14:36:53.982Z,37.02
2018-05-26T14:39:20.228Z,37.94
2018-05-26T14:41:46.613Z,37.04
2018-05-26T14:44:12.858Z,36.34
2018-05-26T14:46:39.089Z,36.38
2018-05-26T14:49:05.567Z,36.28
2018-05-26T14:51:31.847Z,37.12
2018-05-26T14:53:58.103Z,37.43
2018-05-26T14:56:24.348Z,37.59
2018-05-26T14:58:50.625Z,37.60
2018-05-26T15:01:16.877Z,37.34
2018-05-26T15:03:43.157Z,37.11
2018-05-26T15:06:09.403Z,36.96
2018-05-26T15:08:35.679Z,36.90
2018-05-26T15:11:01.962Z,36.69
2018-05-26T15:13:28.251Z,36.36
2018-05-26T15:15:54.622Z,35.89
2018-05-26T15:18:20.854Z,35.43
2018-05-26T15:20:47.198Z,35.08
2018-05-26T15:23:13.435Z,34.77
2018-05-26T15:25:39.651Z,34.45
2018-05-26T15:28:05.902Z,34.11
2018-05-26T15:30:32.152Z,33.83
2018-05-26T15:32:58.374Z,33.50
2018-05-26T15:35:24.638Z,33.22
2018-05-26T15:37:50.862Z,32.88
2018-05-26T15:40:17.163Z,32.58
2018-05-26T15:42:43.462Z,32.07
2018-05-26T15:45:09.682Z,32.04
2018-05-26T15:47:35.962Z,32.00
2018-05-26T15:50:02.291Z,31.87
2018-05-26T15:52:28.562Z,31.88
2018-05-26T15:54:54.858Z,31.86
2018-05-26T15:57:21.118Z,31.81
2018-05-26T15:59:47.354Z,31.83
2018-05-26T16:02:14.255Z,31.77
2018-05-26T16:04:40.515Z,31.59
2018-05-26T16:07:06.731Z,31.59
2018-05-26T16:09:32.963Z,31.59
2018-05-26T16:11:59.218Z,31.57
2018-05-26T16:14:25.441Z,31.54
2018-05-26T16:16:51.707Z,31.48
2018-05-26T16:19:17.951Z,31.38
2018-05-26T16:21:44.230Z,31.26
2018-05-26T16:24:10.467Z,31.05
2018-05-26T16:26:36.914Z,30.89
2018-05-26T16:29:03.266Z,30.65
2018-05-26T16:31:29.786Z,30.53
2018-05-26T16:33:56.081Z,30.46
2018-05-26T16:36:22.359Z,30.41
2018-05-26T16:38:48.638Z,30.38
2018-05-26T16:41:14.895Z,30.34
2018-05-26T16:43:41.172Z,30.23
2018-05-26T16:46:07.614Z,30.05
2018-05-26T16:48:33.891Z,30.03
2018-05-26T16:51:00.127Z,29.85
2018-05-26T16:53:26.375Z,29.83
2018-05-26T16:55:52.836Z,29.80
2018-05-26T16:58:19.279Z,29.69
2018-05-26T17:00:45.530Z,29.67
2018-05-26T17:03:11.775Z,29.60
2018-05-26T17:05:39.201Z,29.50
2018-05-26T17:08:05.447Z,29.48
2018-05-26T17:10:31.669Z,29.42
2018-05-26T17:12:57.905Z,29.35
2018-05-26T17:15:24.135Z,29.27
2018-05-26T17:17:50.416Z,29.21
2018-05-26T17:20:16.639Z,29.15
2018-05-26T17:22:42.880Z,29.10
2018-05-26T17:25:09.148Z,29.04
2018-05-26T17:27:35.377Z,29.00
2018-05-26T17:30:01.690Z,28.86
2018-05-26T17:32:27.958Z,28.78
2018-05-26T17:34:54.251Z,28.70
2018-05-26T17:37:20.612Z,28.62
2018-05-26T17:39:46.883Z,28.54
2018-05-26T17:42:13.147Z,28.48
2018-05-26T17:44:39.386Z,28.41
2018-05-26T17:47:05.660Z,28.35
2018-05-26T17:49:31.901Z,28.27
2018-05-26T17:51:58.129Z,28.19
2018-05-26T17:54:24.382Z,28.08
2018-05-26T17:56:50.617Z,28.02
2018-05-26T17:59:16.851Z,27.95
2018-05-26T18:01:43.115Z,27.88
2018-05-26T18:04:09.338Z,27.79
2018-05-26T18:06:35.660Z,27.73
2018-05-26T18:09:01.907Z,27.72
2018-05-26T18:11:28.122Z,27.64
2018-05-26T18:13:54.358Z,27.57
2018-05-26T18:16:20.626Z,27.50
2018-05-26T18:18:46.882Z,27.42
2018-05-26T18:21:13.191Z,27.34
2018-05-26T18:23:39.414Z,27.28
2018-05-26T18:26:05.693Z,27.23
2018-05-26T18:28:31.911Z,27.15
2018-05-26T18:30:58.231Z,27.07
2018-05-26T18:33:24.446Z,27.00
2018-05-26T18:35:50.707Z,26.92
2018-05-26T18:38:17.034Z,26.82
2018-05-26T18:40:43.271Z,26.71
2018-05-26T18:43:09.599Z,26.62
2018-05-26T18:45:35.886Z,26.52
2018-05-26T18:48:02.118Z,26.43
2018-05-26T18:50:28.387Z,26.35
2018-05-26T18:52:54.594Z,26.25
2018-05-26T18:55:20.925Z,26.12
2018-05-26T18:57:47.243Z,26.00
2018-05-26T19:00:13.466Z,25.87
2018-05-26T19:02:39.740Z,25.77
2018-05-26T19:05:05.959Z,25.68
2018-05-26T19:07:32.218Z,25.60
2018-05-26T19:09:58.474Z,25.50
2018-05-26T19:12:24.795Z,25.37
2018-05-26T19:14:51.046Z,25.28
2018-05-26T19:17:17.407Z,25.21
2018-05-26T19:19:43.690Z,25.11
2018-05-26T19:22:10.043Z,25.05
2018-05-26T19:24:36.271Z,24.98
2018-05-26T19:27:02.494Z,24.90
2018-05-26T19:29:28.750Z,24.83
2018-05-26T19:31:54.963Z,24.75
2018-05-26T19:34:21.270Z,24.65
2018-05-26T19:36:47.534Z,24.56
2018-05-26T19:39:13.770Z,24.53
2018-05-26T19:41:40.021Z,24.44
2018-05-26T19:44:06.304Z,24.34
2018-05-26T19:46:32.541Z,24.24
2018-05-26T19:48:58.873Z,24.16
2018-05-26T19:51:25.154Z,24.07
2018-05-26T19:53:51.403Z,24.03
2018-05-26T19:56:17.838Z,23.93
2018-05-26T19:58:44.070Z,23.86
2018-05-26T20:01:10.393Z,23.75
2018-05-26T20:03:36.647Z,23.72
2018-05-26T20:06:02.937Z,23.66
2018-05-26T20:08:29.506Z,23.60
2018-05-26T20:10:55.739Z,23.52
2018-05-26T20:13:22.057Z,23.50
2018-05-26T20:15:48.302Z,23.46
2018-05-26T20:18:14.531Z,23.45
2018-05-26T20:20:40.846Z,23.44
2018-05-26T20:23:07.104Z,23.39
2018-05-26T20:25:33.367Z,23.34
2018-05-26T20:27:59.603Z,23.30
2018-05-26T20:30:25.836Z,23.26
2018-05-26T20:32:52.105Z,23.21
2018-05-26T20:35:18.415Z,23.19
2018-05-26T20:37:44.707Z,23.13
2018-05-26T20:40:11.026Z,23.08
2018-05-26T20:42:37.282Z,23.08
2018-05-26T20:45:03.605Z,23.11
2018-05-26T20:47:30.091Z,23.14
2018-05-26T20:49:56.418Z,23.07
2018-05-26T20:52:22.693Z,22.99
2018-05-26T20:54:49.103Z,22.93
2018-05-26T20:57:15.367Z,22.89
2018-05-26T20:59:41.638Z,22.86
2018-05-26T21:02:07.959Z,22.83
2018-05-26T21:04:34.191Z,22.81
2018-05-26T21:07:00.453Z,22.78
2018-05-26T21:09:26.729Z,22.77
2018-05-26T21:11:53.038Z,22.73
2018-05-26T21:14:19.331Z,22.70
2018-05-26T21:16:45.569Z,22.66
2018-05-26T21:19:11.813Z,22.61
2018-05-26T21:21:38.070Z,22.57
2018-05-26T21:24:04.328Z,22.56
2018-05-26T21:26:30.598Z,22.52
2018-05-26T21:28:56.829Z,22.41
2018-05-26T21:31:23.061Z,22.33
2018-05-26T21:33:49.326Z,22.27
2018-05-26T21:36:15.643Z,22.25
2018-05-26T21:38:41.907Z,22.28
2018-05-26T21:41:08.140Z,22.24
2018-05-26T21:43:34.378Z,22.24
2018-05-26T21:46:00.646Z,22.22
2018-05-26T21:48:26.884Z,22.21
2018-05-26T21:50:53.166Z,22.15
2018-05-26T21:53:19.402Z,22.09
2018-05-26T21:55:45.650Z,21.99
2018-05-26T21:58:12.016Z,21.94
2018-05-26T22:00:38.303Z,21.85
2018-05-26T22:03:04.574Z,21.78
2018-05-26T22:05:30.870Z,21.74
2018-05-26T22:07:57.094Z,21.70
2018-05-26T22:10:23.382Z,21.71
2018-05-26T22:12:49.660Z,21.70
2018-05-26T22:15:15.962Z,21.64
2018-05-26T22:17:42.190Z,21.58
2018-05-26T22:20:08.412Z,21.52
2018-05-26T22:22:34.670Z,21.48
2018-05-26T22:25:00.898Z,21.43
2018-05-26T22:27:27.162Z,21.41
2018-05-26T22:29:53.450Z,21.38
2018-05-26T22:32:19.702Z,21.41
2018-05-26T22:34:45.974Z,21.41
2018-05-26T22:37:12.216Z,21.38
2018-05-26T22:39:38.498Z,21.39
2018-05-26T22:42:04.810Z,21.34
2018-05-26T22:44:31.034Z,21.28
2018-05-26T22:46:57.286Z,21.26
2018-05-26T22:49:23.597Z,21.20
2018-05-26T22:51:49.864Z,21.18
2018-05-26T22:54:16.103Z,21.22
2018-05-26T22:56:42.334Z,21.21
2018-05-26T22:59:08.620Z,21.21
2018-05-26T23:01:34.898Z,21.22
2018-05-26T23:04:01.142Z,21.21
2018-05-26T23:06:27.370Z,21.19
2018-05-26T23:08:53.623Z,21.22
2018-05-26T23:11:19.868Z,21.22
2018-05-26T23:13:46.106Z,21.24
2018-05-26T23:16:12.358Z,21.22
2018-05-26T23:18:38.615Z,21.21
2018-05-26T23:21:04.872Z,21.20
2018-05-26T23:23:31.140Z,21.20
2018-05-26T23:25:57.438Z,21.21
2018-05-26T23:28:23.742Z,21.22
2018-05-26T23:30:49.978Z,21.21
2018-05-26T23:33:16.209Z,21.22
2018-05-26T23:35:42.475Z,21.18
2018-05-26T23:38:08.759Z,21.14
2018-05-26T23:40:35.028Z,21.08
2018-05-26T23:43:01.319Z,21.04
2018-05-26T23:45:27.555Z,21.03
2018-05-26T23:47:53.798Z,21.00
2018-05-26T23:50:20.038Z,20.96
2018-05-26T23:52:46.367Z,20.93
2018-05-26T23:55:12.625Z,20.94
2018-05-26T23:57:38.882Z,20.91
